Time;durP1;ratioP1;P1;durP2;ratioP2;P2;SDS_P1;SDS_P2;PMS_P1;PMS_P2;Temp;Humidity;BMP_temperature;BMP_pressure;BME280_temperature;BME280_humidity;BME280_pressure;Samples;Min_cycle;Max_cycle;Signal;HPM_P1;HPM_P2
2021/08/04 00:02:33;;;;;;;5.33;1.90;;;;;;;18.83;62.18;97695.56;8316258;28;20201;-65
2021/08/04 00:07:04;;;;;;;3.60;1.57;;;;;;;18.87;62.56;97701.41;8317124;28;20201;-65
2021/08/04 00:11:25;;;;;;;4.23;1.83;;;;;;;18.86;62.39;97707.59;8316572;28;20276;-65
2021/08/04 00:15:55;;;;;;;3.33;1.73;;;;;;;18.87;61.59;97701.41;8316240;28;20251;-65
2021/08/04 00:20:06;;;;;;;5.30;2.10;;;;;;;18.83;62.64;97719.16;8315188;28;20479;-65
2021/08/04 00:24:30;;;;;;;2.67;2.20;;;;;;;18.81;61.82;97713.22;8316624;28;20210;-66
2021/08/04 00:28:54;;;;;;;2.53;2.00;;;;;;;18.83;61.43;97713.94;8325456;28;20196;-65
2021/08/04 00:33:31;;;;;;;3.97;2.03;;;;;;;18.80;61.51;97714.16;8354842;28;20680;-65
2021/08/04 00:38:00;;;;;;;3.23;2.07;;;;;;;18.83;62.61;97716.53;8354259;28;20250;-65
2021/08/04 00:42:24;;;;;;;2.53;1.87;;;;;;;18.84;62.06;97712.94;8354782;28;20207;-65
2021/08/04 00:46:39;;;;;;;5.03;1.87;;;;;;;18.84;61.84;97718.19;8354940;28;20203;-65
2021/08/04 00:51:00;;;;;;;3.83;1.93;;;;;;;18.85;62.07;97719.88;8352898;28;20385;-65
2021/08/04 00:55:17;;;;;;;3.73;1.90;;;;;;;18.80;62.42;97714.16;8354573;28;20339;-65
2021/08/04 00:59:51;;;;;;;5.63;1.90;;;;;;;18.80;62.20;97711.53;8354467;28;20200;-65
2021/08/04 01:04:18;;;;;;;3.73;1.77;;;;;;;18.81;62.59;97707.97;8326749;28;20232;-65
2021/08/04 01:09:00;;;;;;;4.97;2.00;;;;;;;18.75;62.97;97714.53;8321693;28;20205;-65
2021/08/04 01:13:28;;;;;;;2.20;1.83;;;;;;;18.76;62.74;97715.34;8321850;28;20229;-65
2021/08/04 01:17:54;;;;;;;3.57;1.90;;;;;;;18.53;62.85;97718.03;8321493;28;20245;-65
2021/08/04 01:22:26;;;;;;;3.47;1.77;;;;;;;18.72;62.49;97711.31;8321800;28;20519;-65
2021/08/04 01:26:58;;;;;;;4.43;1.80;;;;;;;18.70;62.25;97715.84;8320017;28;20210;-66
2021/08/04 01:31:25;;;;;;;4.37;1.70;;;;;;;18.67;62.91;97721.34;8320344;28;20216;-65
2021/08/04 01:35:57;;;;;;;3.33;1.70;;;;;;;18.68;63.24;97713.34;8320829;28;20291;-66
2021/08/04 01:40:07;;;;;;;4.70;2.10;;;;;;;18.66;63.82;97714.44;8333069;28;20245;-65
2021/08/04 01:44:22;;;;;;;2.40;1.93;;;;;;;18.66;63.99;97709.19;8353728;28;20207;-65
2021/08/04 01:48:29;;;;;;;5.37;1.80;;;;;;;18.63;63.44;97707.63;8353636;28;20521;-65
2021/08/04 01:52:36;;;;;;;3.57;1.83;;;;;;;18.61;63.44;97704.31;8353562;28;20200;-65
2021/08/04 01:56:42;;;;;;;2.87;1.90;;;;;;;18.64;63.96;97711.09;8353253;28;20236;-65
2021/08/04 02:01:01;;;;;;;3.17;1.80;;;;;;;18.64;63.74;97705.84;8351312;28;20223;-65
2021/08/04 02:05:29;;;;;;;2.90;1.80;;;;;;;18.65;63.15;97704.91;8320521;28;20248;-65
2021/08/04 02:09:51;;;;;;;3.43;1.83;;;;;;;18.54;62.84;97711.84;8319629;28;20493;-65
2021/08/04 02:14:25;;;;;;;3.03;1.97;;;;;;;18.60;62.73;97714.91;8318723;28;20420;-66
2021/08/04 02:19:11;;;;;;;2.73;1.80;;;;;;;18.60;61.73;97715.78;8318526;28;20229;-65
2021/08/04 02:23:25;;;;;;;3.33;2.10;;;;;;;18.53;62.26;97709.34;8319935;28;20213;-65
2021/08/04 02:27:41;;;;;;;3.60;1.83;;;;;;;18.53;62.16;97707.56;8319677;28;20483;-65
2021/08/04 02:32:00;;;;;;;6.47;2.10;;;;;;;18.49;61.28;97705.31;8317762;28;20200;-65
2021/08/04 02:36:26;;;;;;;4.97;1.97;;;;;;;18.38;62.17;97705.34;8319012;28;20224;-65
2021/08/04 02:40:47;;;;;;;3.43;1.90;;;;;;;18.45;61.56;97696.00;8319155;28;20205;-65
2021/08/04 02:45:09;;;;;;;4.40;1.70;;;;;;;18.38;61.72;97687.81;8318943;28;20227;-65
2021/08/04 02:49:28;;;;;;;2.37;1.80;;;;;;;18.41;62.01;97695.44;8316902;28;20278;-65
2021/08/04 02:53:59;;;;;;;3.50;1.67;;;;;;;18.42;62.14;97699.72;8317900;28;20201;-66
2021/08/04 02:58:21;;;;;;;1.57;1.47;;;;;;;18.36;61.86;97698.44;8318787;28;20208;-65
2021/08/04 03:02:52;;;;;;;3.03;1.60;;;;;;;18.31;61.93;97705.00;8318662;28;20220;-65
2021/08/04 03:07:04;;;;;;;2.70;1.60;;;;;;;18.33;61.56;97701.31;8318203;28;20436;-65
2021/08/04 03:11:30;;;;;;;1.93;1.37;;;;;;;18.27;61.68;97707.03;8318418;28;20208;-65
2021/08/04 03:15:40;;;;;;;2.07;1.60;;;;;;;18.31;62.60;97713.69;8317866;28;20559;-65
2021/08/04 03:20:04;;;;;;;3.47;1.60;;;;;;;18.40;61.73;97716.53;8317786;28;20197;-65
2021/08/04 03:24:21;;;;;;;2.67;1.63;;;;;;;18.38;62.18;97719.28;8292236;28;20205;-65
2021/08/04 03:28:37;;;;;;;3.83;1.80;;;;;;;18.36;61.80;97721.19;8285577;28;20202;-65
2021/08/04 03:32:56;;;;;;;2.90;1.50;;;;;;;18.40;61.58;97720.00;8284604;28;20208;-65
2021/08/04 03:37:11;;;;;;;2.20;1.60;;;;;;;18.39;61.59;97720.09;8284981;28;20350;-65
2021/08/04 03:41:31;;;;;;;2.10;1.60;;;;;;;18.41;61.81;97719.03;8283109;28;20220;-65
2021/08/04 03:45:59;;;;;;;4.03;1.90;;;;;;;18.42;61.93;97728.56;8285386;28;20213;-65
2021/08/04 03:50:16;;;;;;;3.00;2.00;;;;;;;18.44;61.97;97726.66;8284086;28;20202;-65
2021/08/04 03:54:48;;;;;;;2.53;2.10;;;;;;;18.49;61.57;97731.53;8281502;28;20247;-65
2021/08/04 03:59:10;;;;;;;2.43;1.80;;;;;;;18.39;62.24;97730.59;8284742;28;20206;-65
2021/08/04 04:03:47;;;;;;;2.90;1.67;;;;;;;18.49;61.87;97729.75;8303810;28;20205;-66
2021/08/04 04:08:08;;;;;;;4.27;2.07;;;;;;;18.51;62.53;97727.81;8315228;28;20284;-65
2021/08/04 04:12:23;;;;;;;1.90;1.70;;;;;;;18.51;62.15;97729.63;8316650;28;20200;-65
2021/08/04 04:16:44;;;;;;;2.33;1.60;;;;;;;18.45;62.14;97722.22;8316414;28;20245;-65
2021/08/04 04:21:17;;;;;;;3.13;2.13;;;;;;;18.46;61.88;97724.72;8315797;28;20208;-65
2021/08/04 04:25:55;;;;;;;5.13;2.00;;;;;;;18.42;61.98;97733.81;8315069;28;20259;-66
2021/08/04 04:30:26;;;;;;;2.60;1.60;;;;;;;18.41;62.21;97726.06;8316651;28;20201;-65
2021/08/04 04:34:58;;;;;;;2.10;1.90;;;;;;;18.39;61.85;97722.72;8316982;28;20527;-65
2021/08/04 04:39:26;;;;;;;3.67;1.83;;;;;;;18.47;61.66;97733.47;8316466;28;20488;-65
2021/08/04 04:43:59;;;;;;;3.23;1.93;;;;;;;18.36;61.62;97726.44;8316202;28;20305;-66
2021/08/04 04:48:10;;;;;;;5.57;2.00;;;;;;;18.45;61.98;97735.34;8316429;28;20500;-65
2021/08/04 04:52:32;;;;;;;3.37;1.80;;;;;;;18.50;61.66;97741.88;8316637;28;20201;-65
2021/08/04 04:57:09;;;;;;;2.73;1.73;;;;;;;18.58;62.04;97748.31;8315773;28;20536;-65
2021/08/04 05:01:42;;;;;;;4.50;1.77;;;;;;;18.53;61.88;97752.13;8314878;28;20204;-65
2021/08/04 05:06:13;;;;;;;6.93;1.70;;;;;;;18.62;61.75;97754.97;8316215;28;20213;-65
2021/08/04 05:10:47;;;;;;;2.87;1.70;;;;;;;18.63;61.79;97754.84;8315681;28;20208;-65
2021/08/04 05:15:11;;;;;;;6.13;1.80;;;;;;;18.78;61.19;97752.78;8317581;28;20555;-65
2021/08/04 05:19:28;;;;;;;2.00;1.70;;;;;;;18.76;61.97;97758.13;8317475;28;20200;-65
2021/08/04 05:23:49;;;;;;;7.13;1.83;;;;;;;18.78;61.63;97758.03;8320629;28;20201;-65
2021/08/04 05:28:18;;;;;;;2.47;1.63;;;;;;;18.83;61.32;97760.28;8321060;28;20264;-65
2021/08/04 05:32:58;;;;;;;3.47;1.70;;;;;;;18.76;61.34;97760.75;8321533;28;20519;-65
2021/08/04 05:37:09;;;;;;;3.93;1.80;;;;;;;18.82;60.96;97764.72;8321309;28;20224;-65
2021/08/04 05:41:33;;;;;;;4.60;2.07;;;;;;;18.86;60.90;97765.28;8320483;28;20268;-66
2021/08/04 05:45:57;;;;;;;2.60;1.53;;;;;;;18.86;61.20;97760.88;8320844;28;20209;-65
2021/08/04 05:50:23;;;;;;;4.97;2.00;;;;;;;18.99;60.63;97765.13;8321084;28;20200;-65
2021/08/04 05:54:51;;;;;;;2.83;1.70;;;;;;;18.95;60.99;97764.56;8320541;28;20523;-65
2021/08/04 05:59:05;;;;;;;4.77;2.30;;;;;;;18.97;60.75;97759.19;8320669;28;20217;-65
2021/08/04 06:03:28;;;;;;;2.03;1.90;;;;;;;19.01;60.87;97768.47;8320358;28;20201;-65
2021/08/04 06:07:56;;;;;;;2.87;1.80;;;;;;;19.06;60.64;97759.25;8320160;28;20209;-65
2021/08/04 06:12:18;;;;;;;5.53;2.00;;;;;;;19.02;60.70;97763.09;8319835;28;20207;-65
2021/08/04 06:16:42;;;;;;;3.90;1.77;;;;;;;19.07;60.39;97763.53;8319416;28;20574;-65
2021/08/04 06:21:03;;;;;;;3.70;2.30;;;;;;;19.12;60.76;97768.41;8318264;28;20208;-65
2021/08/04 06:25:19;;;;;;;5.40;2.37;;;;;;;19.17;60.36;97771.47;8319860;28;20294;-65
2021/08/04 06:29:31;;;;;;;3.17;1.90;;;;;;;19.07;60.88;97767.94;8319679;28;20496;-65
2021/08/04 06:33:35;;;;;;;3.37;2.17;;;;;;;19.08;61.13;97765.22;8312532;28;20228;-65
2021/08/04 06:37:39;;;;;;;2.17;1.97;;;;;;;19.21;60.21;97767.66;8302202;28;20536;-65
2021/08/04 06:41:52;;;;;;;2.27;1.73;;;;;;;19.43;59.64;97769.31;8302419;28;20194;-65
2021/08/04 06:45:57;;;;;;;2.20;2.00;;;;;;;19.30;60.08;97777.38;8301914;28;20229;-67
2021/08/04 06:50:18;;;;;;;3.93;2.10;;;;;;;19.38;59.74;97768.03;8301536;28;20496;-65
2021/08/04 06:54:25;;;;;;;2.67;2.17;;;;;;;19.20;59.75;97768.59;8301816;28;20226;-65
2021/08/04 06:58:39;;;;;;;2.57;2.30;;;;;;;19.28;58.83;97774.03;8301699;28;20300;-67
2021/08/04 07:02:43;;;;;;;5.00;2.50;;;;;;;19.35;59.14;97771.75;8307984;28;20226;-66
2021/08/04 07:06:54;;;;;;;3.03;2.00;;;;;;;19.36;59.15;97770.78;8300471;28;20213;-67
2021/08/04 07:10:57;;;;;;;3.03;2.50;;;;;;;19.21;59.87;97777.31;8302490;28;20193;-66
2021/08/04 07:15:01;;;;;;;2.67;2.10;;;;;;;19.44;59.84;97778.03;8298969;28;20194;-67
2021/08/04 07:19:04;;;;;;;4.50;2.20;;;;;;;19.47;58.95;97781.22;8285501;28;20238;-67
2021/08/04 07:23:07;;;;;;;4.00;2.20;;;;;;;19.40;59.07;97774.84;8285442;28;20206;-67
2021/08/04 07:27:09;;;;;;;3.10;2.20;;;;;;;19.53;59.09;97779.88;8285464;28;20212;-66
2021/08/04 07:31:14;;;;;;;3.50;2.20;;;;;;;19.58;59.23;97779.50;8290972;28;20209;-66
2021/08/04 07:35:18;;;;;;;5.20;3.40;;;;;;;19.56;59.95;97777.00;8315097;28;20224;-66
2021/08/04 07:39:21;;;;;;;3.00;2.00;;;;;;;19.81;58.42;97783.66;8316649;28;20379;-66
2021/08/04 07:43:24;;;;;;;2.87;2.10;;;;;;;19.95;58.88;97786.91;8317345;28;20197;-67
2021/08/04 07:47:28;;;;;;;3.00;2.30;;;;;;;19.96;59.24;97772.81;8316826;28;20205;-66
2021/08/04 07:51:31;;;;;;;4.20;2.27;;;;;;;20.07;59.28;97778.00;8317359;28;20201;-66
2021/08/04 07:55:34;;;;;;;4.73;2.33;;;;;;;20.04;58.20;97779.06;8316818;28;20225;-66
2021/08/04 07:59:37;;;;;;;3.63;2.30;;;;;;;20.21;58.43;97774.97;8316516;28;20327;-66
2021/08/04 08:03:41;;;;;;;7.37;2.57;;;;;;;20.34;57.22;97787.06;8316888;28;20236;-66
2021/08/04 08:07:48;;;;;;;3.80;2.20;;;;;;;20.67;56.78;97780.66;8317167;28;20232;-66
2021/08/04 08:11:51;;;;;;;4.57;2.40;;;;;;;21.40;54.38;97777.63;8317340;28;20283;-67
2021/08/04 08:15:54;;;;;;;5.67;2.57;;;;;;;21.47;54.25;97773.47;8316824;28;20243;-67
2021/08/04 08:19:59;;;;;;;4.60;2.70;;;;;;;21.15;54.69;97792.19;8317212;28;20384;-67
2021/08/04 08:24:03;;;;;;;4.77;2.60;;;;;;;20.96;55.07;97790.38;8317223;28;20204;-66
2021/08/04 08:28:06;;;;;;;4.90;2.33;;;;;;;21.12;55.69;97784.59;8316994;28;20206;-66
2021/08/04 08:32:10;;;;;;;4.20;2.47;;;;;;;21.35;55.09;97783.31;8317023;28;20248;-64
2021/08/04 08:36:15;;;;;;;3.60;2.20;;;;;;;21.62;54.69;97774.69;8316809;28;20224;-65
2021/08/04 08:40:18;;;;;;;3.87;2.20;;;;;;;21.81;53.11;97783.53;8316583;28;20197;-65
2021/08/04 08:44:23;;;;;;;3.97;2.60;;;;;;;21.85;52.32;97780.44;8316390;28;20267;-65
2021/08/04 08:48:26;;;;;;;3.33;2.30;;;;;;;22.33;50.34;97772.53;8316502;28;20212;-65
2021/08/04 08:52:31;;;;;;;3.43;2.40;;;;;;;21.82;52.96;97777.31;8322322;28;20243;-65
2021/08/04 08:56:34;;;;;;;5.23;2.70;;;;;;;21.54;53.14;97771.13;8322139;28;20229;-64
2021/08/04 09:00:37;;;;;;;3.43;2.13;;;;;;;21.41;53.92;97766.13;8322319;28;20209;-65
2021/08/04 09:04:40;;;;;;;5.97;2.50;;;;;;;21.34;53.13;97763.19;8322347;28;20204;-64
2021/08/04 09:08:45;;;;;;;4.03;2.30;;;;;;;22.62;50.28;97764.47;8322513;28;20209;-68
2021/08/04 09:12:49;;;;;;;3.70;2.00;;;;;;;21.80;51.57;97760.78;8322267;28;20209;-64
2021/08/04 09:16:59;;;;;;;2.90;2.60;;;;;;;21.94;50.76;97760.31;8321801;28;20245;-64
2021/08/04 09:21:02;;;;;;;4.20;2.40;;;;;;;22.61;49.56;97746.94;8347924;28;20205;-65
2021/08/04 09:25:09;;;;;;;2.57;2.20;;;;;;;21.75;48.89;97755.13;8322810;28;20196;-65
2021/08/04 09:29:12;;;;;;;2.93;2.30;;;;;;;23.09;46.31;97742.28;8309615;28;20271;-66
2021/08/04 09:33:25;;;;;;;4.40;2.40;;;;;;;23.21;45.10;97738.44;8289162;28;20205;-64
2021/08/04 09:37:29;;;;;;;4.83;2.33;;;;;;;22.57;47.17;97741.13;8291390;28;20232;-64
2021/08/04 09:41:36;;;;;;;5.13;2.40;;;;;;;22.47;48.54;97739.56;8288743;28;20271;-64
2021/08/04 09:45:42;;;;;;;2.40;2.10;;;;;;;22.01;49.19;97744.75;8288623;28;20213;-64
2021/08/04 09:49:56;;;;;;;3.07;2.20;;;;;;;21.92;49.84;97737.72;8288458;28;20201;-63
2021/08/04 09:54:08;;;;;;;5.03;2.30;;;;;;;21.63;51.04;97736.84;8288514;28;20571;-64
2021/08/04 09:58:26;;;;;;;3.80;2.23;;;;;;;21.56;51.87;97737.56;8288109;28;20240;-63
2021/08/04 10:02:30;;;;;;;8.40;2.20;;;;;;;21.44;52.50;97740.38;8303095;28;20201;-64
2021/08/04 10:06:36;;;;;;;4.10;2.20;;;;;;;21.47;52.63;97750.59;8303269;28;20200;-64
2021/08/04 10:10:40;;;;;;;8.67;2.30;;;;;;;21.25;53.57;97746.47;8308831;28;20491;-64
2021/08/04 10:14:48;;;;;;;7.30;2.47;;;;;;;21.34;53.38;97749.22;8320150;28;20209;-64
2021/08/04 10:18:51;;;;;;;4.90;2.30;;;;;;;21.45;53.83;97749.91;8319822;28;20262;-64
2021/08/04 10:22:56;;;;;;;4.80;2.30;;;;;;;21.34;54.06;97743.94;8319794;28;20301;-63
2021/08/04 10:26:59;;;;;;;7.20;2.40;;;;;;;21.57;53.57;97741.84;8316782;28;20239;-64
2021/08/04 10:31:04;;;;;;;9.60;2.80;;;;;;;21.82;51.71;97729.84;8299632;28;20229;-64
2021/08/04 10:35:10;;;;;;;3.93;2.37;;;;;;;21.61;50.17;97736.16;8298742;28;20205;-64
2021/08/04 10:39:14;;;;;;;7.17;2.20;;;;;;;21.93;51.15;97736.72;8302335;28;20225;-64
2021/08/04 10:43:36;;;;;;;5.23;2.57;;;;;;;21.82;50.31;97730.69;8301969;28;20202;-64
2021/08/04 10:47:42;;;;;;;3.57;2.40;;;;;;;21.93;49.97;97724.38;8301003;28;20197;-64
2021/08/04 10:52:14;;;;;;;7.20;2.00;;;;;;;22.00;48.71;97725.47;8298511;28;20412;-64
2021/08/04 10:56:17;;;;;;;5.70;2.30;;;;;;;22.36;49.28;97720.31;8301428;28;20232;-64
2021/08/04 11:00:22;;;;;;;2.90;1.80;;;;;;;22.42;49.13;97730.25;8301772;28;20203;-64
2021/08/04 11:04:56;;;;;;;3.40;1.80;;;;;;;22.57;49.10;97725.31;8302280;28;20225;-64
2021/08/04 11:09:33;;;;;;;2.60;2.10;;;;;;;22.34;47.09;97710.88;8301435;28;20260;-64
2021/08/04 11:13:57;;;;;;;3.27;1.70;;;;;;;22.70;46.48;97714.38;8301054;28;20193;-64
2021/08/04 11:18:06;;;;;;;4.03;1.90;;;;;;;22.68;47.87;97705.78;8299621;28;20303;-64
2021/08/04 11:22:19;;;;;;;7.33;2.33;;;;;;;22.65;47.16;97698.97;8301788;28;20201;-64
2021/08/04 11:26:23;;;;;;;2.77;1.70;;;;;;;23.14;46.51;97687.22;8301030;28;20197;-63
2021/08/04 11:30:29;;;;;;;9.17;2.10;;;;;;;23.47;45.88;97677.66;8299621;28;20197;-64
2021/08/04 11:34:32;;;;;;;4.20;1.87;;;;;;;23.59;44.89;97675.59;8301166;28;20389;-64
2021/08/04 11:38:42;;;;;;;4.33;2.27;;;;;;;23.76;44.62;97673.84;8300634;28;20562;-64
2021/08/04 11:42:45;;;;;;;3.13;2.00;;;;;;;23.61;43.62;97674.47;8300569;28;20196;-64
2021/08/04 11:46:52;;;;;;;2.17;1.70;;;;;;;24.43;42.84;97668.66;8302095;28;20199;-65
2021/08/04 11:50:57;;;;;;;3.27;1.90;;;;;;;24.88;41.48;97667.38;8309805;28;20193;-64
2021/08/04 11:55:07;;;;;;;3.70;1.83;;;;;;;24.73;41.30;97663.72;8303249;28;20225;-65
2021/08/04 11:59:12;;;;;;;5.00;1.97;;;;;;;24.77;41.65;97657.13;8300011;28;20228;-65
2021/08/04 12:03:19;;;;;;;4.27;1.83;;;;;;;23.71;43.02;97658.47;8306672;28;20216;-65
2021/08/04 12:07:26;;;;;;;2.60;2.00;;;;;;;23.97;42.61;97657.59;8314377;28;20504;-65
2021/08/04 12:11:42;;;;;;;3.77;1.80;;;;;;;23.83;42.41;97655.59;8299138;28;20197;-65
2021/08/04 12:15:45;;;;;;;2.20;1.80;;;;;;;23.08;43.85;97656.16;8299839;28;20222;-65
2021/08/04 12:19:49;;;;;;;1.80;1.57;;;;;;;23.47;42.86;97659.16;8299949;28;20527;-65
2021/08/04 12:23:58;;;;;;;4.00;1.90;;;;;;;23.33;43.28;97659.78;8303753;28;20208;-65
2021/08/04 12:28:04;;;;;;;1.87;1.70;;;;;;;23.15;43.92;97658.00;8319561;28;20208;-65
2021/08/04 12:32:21;;;;;;;6.17;1.87;;;;;;;23.71;43.22;97647.09;8306412;28;20212;-65
2021/08/04 12:36:35;;;;;;;1.83;1.60;;;;;;;24.16;44.15;97653.84;8306266;28;20200;-65
2021/08/04 12:40:46;;;;;;;2.07;1.97;;;;;;;24.20;42.25;97645.44;8305987;28;20198;-65
2021/08/04 12:45:18;;;;;;;4.43;2.13;;;;;;;23.97;42.08;97647.03;8305932;28;20193;-65
2021/08/04 12:49:25;;;;;;;3.07;2.00;;;;;;;23.61;43.29;97650.66;8305695;28;20272;-65
2021/08/04 12:53:30;;;;;;;5.40;2.23;;;;;;;23.21;44.34;97644.19;8304249;28;20202;-65
2021/08/04 12:57:36;;;;;;;3.90;2.10;;;;;;;23.38;44.90;97636.34;8305442;28;20226;-65
2021/08/04 13:01:44;;;;;;;3.90;1.90;;;;;;;23.36;45.14;97649.72;8306353;28;20228;-67
2021/08/04 13:05:49;;;;;;;13.87;2.60;;;;;;;23.20;45.33;97639.88;8303132;28;20419;-65
2021/08/04 13:09:54;;;;;;;2.50;1.80;;;;;;;22.84;44.25;97633.81;8305697;28;20213;-65
2021/08/04 13:14:02;;;;;;;5.20;2.07;;;;;;;23.09;44.90;97626.09;8305014;28;20268;-65
2021/08/04 13:18:13;;;;;;;3.97;2.00;;;;;;;22.77;45.15;97638.91;8304643;28;20243;-65
2021/08/04 13:22:17;;;;;;;4.13;1.70;;;;;;;22.93;45.19;97629.44;8304736;28;20429;-66
2021/08/04 13:26:23;;;;;;;2.87;1.53;;;;;;;22.90;44.76;97625.28;8304522;28;20194;-64
2021/08/04 13:30:30;;;;;;;4.60;2.37;;;;;;;22.89;44.82;97620.19;8304455;28;20212;-64
2021/08/04 13:34:38;;;;;;;6.73;1.93;;;;;;;22.83;45.21;97613.69;8303149;28;20203;-64
2021/08/04 13:38:46;;;;;;;5.97;1.80;;;;;;;22.52;45.24;97618.53;8304174;28;20231;-64
2021/08/04 13:42:51;;;;;;;2.93;1.80;;;;;;;22.88;45.68;97613.22;8303188;28;20209;-64
2021/08/04 13:46:57;;;;;;;2.00;1.70;;;;;;;22.87;45.57;97608.94;8304152;28;20194;-64
2021/08/04 13:51:06;;;;;;;2.60;1.50;;;;;;;22.90;45.51;97617.34;8303744;28;20495;-64
2021/08/04 13:55:13;;;;;;;3.43;1.80;;;;;;;22.77;45.75;97612.50;8299814;28;20224;-64
2021/08/04 13:59:18;;;;;;;1.90;1.63;;;;;;;22.89;45.39;97605.16;8303474;28;20232;-64
2021/08/04 14:03:21;;;;;;;3.50;1.70;;;;;;;22.32;46.25;97612.63;8304400;28;20397;-63
2021/08/04 14:07:26;;;;;;;3.30;1.90;;;;;;;22.54;47.31;97617.44;8303469;28;20194;-64
2021/08/04 14:11:29;;;;;;;2.60;1.80;;;;;;;22.43;46.59;97613.22;8303472;28;20214;-66
2021/08/04 14:15:32;;;;;;;2.37;2.00;;;;;;;22.52;46.50;97615.91;8303000;28;20197;-65
2021/08/04 14:19:35;;;;;;;2.60;1.53;;;;;;;22.31;46.52;97606.50;8303877;28;20225;-66
2021/08/04 14:23:39;;;;;;;3.97;2.07;;;;;;;22.13;47.20;97613.56;8301990;28;20223;-66
2021/08/04 14:27:42;;;;;;;3.80;1.83;;;;;;;22.22;47.17;97613.47;8303168;28;20200;-66
2021/08/04 14:31:47;;;;;;;2.67;1.80;;;;;;;22.24;47.15;97608.88;8302080;28;20194;-65
2021/08/04 14:35:50;;;;;;;2.80;1.60;;;;;;;22.37;47.63;97615.59;8302485;28;20200;-66
2021/08/04 14:39:54;;;;;;;2.20;1.90;;;;;;;22.33;47.30;97611.63;8302494;28;20223;-66
2021/08/04 14:43:58;;;;;;;2.17;1.70;;;;;;;22.29;47.04;97608.44;8300365;28;20235;-66
2021/08/04 14:48:04;;;;;;;4.27;1.80;;;;;;;22.37;47.08;97608.53;8298125;28;20200;-65
2021/08/04 14:52:07;;;;;;;4.27;1.83;;;;;;;22.47;46.33;97613.75;8303226;28;20397;-65
2021/08/04 14:56:15;;;;;;;4.13;1.60;;;;;;;22.47;45.94;97602.38;8311413;28;20231;-67
2021/08/04 15:00:18;;;;;;;2.73;1.70;;;;;;;22.54;46.01;97600.75;8304657;28;20231;-65
2021/08/04 15:04:24;;;;;;;3.70;1.40;;;;;;;22.52;45.83;97602.72;8302168;28;20201;-67
2021/08/04 15:08:29;;;;;;;5.43;1.90;;;;;;;22.56;46.98;97604.06;8300306;28;20265;-65
2021/08/04 15:12:38;;;;;;;8.87;1.90;;;;;;;22.57;47.09;97600.47;8300278;28;20196;-65
2021/08/04 15:16:44;;;;;;;2.60;1.73;;;;;;;22.56;46.37;97598.78;8298856;28;20481;-65
2021/08/04 15:20:50;;;;;;;5.23;2.00;;;;;;;22.47;46.01;97590.00;8300138;28;20554;-65
2021/08/04 15:24:56;;;;;;;3.03;1.87;;;;;;;22.58;47.13;97581.00;8301069;28;20256;-65
2021/08/04 15:29:03;;;;;;;4.60;1.70;;;;;;;22.48;47.32;97581.09;8300596;28;20211;-65
2021/08/04 15:33:08;;;;;;;4.37;1.67;;;;;;;22.35;46.77;97570.09;8301669;28;20271;-66
2021/08/04 15:37:15;;;;;;;2.67;2.10;;;;;;;22.25;46.99;97578.91;8300714;28;20222;-66
2021/08/04 15:41:20;;;;;;;5.27;2.00;;;;;;;22.25;46.69;97572.81;8300544;28;20457;-68
2021/08/04 15:45:28;;;;;;;2.40;1.93;;;;;;;22.21;47.18;97572.25;8299864;28;20203;-68
2021/08/04 15:49:45;;;;;;;4.10;1.90;;;;;;;21.94;46.41;97569.69;8298159;28;20432;-66
2021/08/04 15:54:17;;;;;;;2.37;1.67;;;;;;;22.15;48.24;97572.84;8287326;28;20390;-68
2021/08/04 15:58:52;;;;;;;4.77;1.90;;;;;;;22.09;46.51;97565.56;8283475;28;20254;-67
2021/08/04 16:03:18;;;;;;;17.80;2.23;;;;;;;22.04;46.65;97562.53;8303120;28;20211;-67
2021/08/04 16:07:49;;;;;;;152.13;13.73;;;;;;;21.93;47.08;97555.66;8316616;28;20390;-67
2021/08/04 16:12:17;;;;;;;800.87;676.70;;;;;;;21.84;47.14;97569.75;8316823;28;20204;-67
2021/08/04 16:16:38;;;;;;;1550.03;985.83;;;;;;;22.02;47.07;97553.94;8316440;28;20404;-67
2021/08/04 16:21:15;;;;;;;467.30;409.27;;;;;;;22.15;47.16;97550.94;8316816;28;20235;-67
2021/08/04 16:25:41;;;;;;;137.10;105.13;;;;;;;22.33;46.31;97551.81;8316954;28;20209;-67
2021/08/04 16:29:58;;;;;;;83.87;64.17;;;;;;;22.27;47.02;97547.09;8316455;28;20214;-67
2021/08/04 16:34:11;;;;;;;697.50;631.60;;;;;;;22.56;46.17;97552.13;8316039;28;20389;-67
2021/08/04 16:38:31;;;;;;;638.20;571.37;;;;;;;22.58;46.10;97544.91;8316465;28;20387;-67
2021/08/04 16:42:59;;;;;;;65.97;59.07;;;;;;;22.54;45.83;97550.63;8316151;28;20204;-68
2021/08/04 16:47:27;;;;;;;21.40;19.50;;;;;;;22.53;44.96;97543.69;8316167;28;20233;-67
2021/08/04 16:51:52;;;;;;;5.07;2.93;;;;;;;22.54;45.46;97546.19;8315593;28;20416;-68
2021/08/04 16:56:28;;;;;;;14.63;8.70;;;;;;;22.64;45.76;97546.91;8315088;28;20231;-67
2021/08/04 17:00:52;;;;;;;22.50;20.63;;;;;;;22.23;44.73;97543.91;8315732;28;20558;-67
2021/08/04 17:05:08;;;;;;;830.57;697.87;;;;;;;22.84;45.81;97534.31;8313571;28;20197;-71
2021/08/04 17:09:16;;;;;;;1999.90;999.90;;;;;;;23.34;46.82;97534.59;8302888;28;20216;-68
2021/08/04 17:13:30;;;;;;;1820.27;999.90;;;;;;;23.23;46.05;97527.81;8297478;28;20204;-67
2021/08/04 17:17:42;;;;;;;1999.90;999.90;;;;;;;23.46;43.82;97532.53;8304569;28;20260;-68
2021/08/04 17:21:54;;;;;;;825.70;669.80;;;;;;;23.83;44.92;97520.75;8303897;28;20537;-68
2021/08/04 17:26:14;;;;;;;508.07;402.80;;;;;;;23.99;46.52;97518.13;8312401;28;20197;-67
2021/08/04 17:30:52;;;;;;;336.13;260.07;;;;;;;24.13;47.48;97514.00;8321299;28;20211;-67
2021/08/04 17:35:20;;;;;;;500.77;257.47;;;;;;;24.23;47.77;97519.94;8321690;28;20201;-68
2021/08/04 17:39:55;;;;;;;1999.90;859.50;;;;;;;24.25;47.75;97523.25;8321093;28;20236;-68
2021/08/04 17:44:15;;;;;;;142.00;53.13;;;;;;;24.13;47.67;97525.41;8295952;28;20279;-68
2021/08/04 17:48:45;;;;;;;131.57;37.77;;;;;;;24.01;48.26;97518.78;8286338;28;20479;-68
2021/08/04 17:53:18;;;;;;;97.00;27.67;;;;;;;23.89;48.07;97517.44;8286804;28;20268;-68
2021/08/04 17:57:47;;;;;;;26.10;7.43;;;;;;;23.85;47.38;97521.41;8286115;28;20238;-68
2021/08/04 18:02:06;;;;;;;9.70;3.17;;;;;;;23.64;47.58;97519.19;8298958;28;20393;-67
2021/08/04 18:06:26;;;;;;;9.53;3.10;;;;;;;23.43;46.93;97515.16;8302371;28;20198;-68
2021/08/04 18:11:01;;;;;;;46.57;27.20;;;;;;;23.23;47.56;97523.34;8287809;28;20276;-68
2021/08/04 18:15:19;;;;;;;11.67;4.00;;;;;;;23.04;48.39;97520.94;8284633;28;20205;-67
2021/08/04 18:19:38;;;;;;;6.97;3.07;;;;;;;22.83;48.68;97524.75;8286939;28;20429;-68
2021/08/04 18:24:13;;;;;;;49.83;12.17;;;;;;;22.64;49.30;97519.69;8285877;28;20219;-68
2021/08/04 18:28:20;;;;;;;5.63;4.20;;;;;;;22.50;49.15;97526.34;8285281;28;20214;-68
2021/08/04 18:32:29;;;;;;;3.80;2.90;;;;;;;22.31;49.56;97513.34;8287426;28;20372;-67
2021/08/04 18:36:53;;;;;;;8.03;2.73;;;;;;;22.08;51.03;97497.97;8288374;28;20213;-67
2021/08/04 18:41:24;;;;;;;5.30;2.77;;;;;;;21.84;52.70;97498.59;8285171;28;20425;-67
2021/08/04 18:45:51;;;;;;;2.80;2.40;;;;;;;21.82;52.46;97505.84;8284259;28;20425;-67
2021/08/04 18:50:14;;;;;;;2.87;2.33;;;;;;;21.76;53.40;97516.94;8286497;28;20434;-66
2021/08/04 18:54:32;;;;;;;2.80;2.50;;;;;;;21.64;54.21;97508.44;8286130;28;20423;-66
2021/08/04 18:59:03;;;;;;;4.43;2.70;;;;;;;21.64;54.03;97511.88;8286309;28;20204;-65
2021/08/04 19:03:30;;;;;;;6.17;3.17;;;;;;;21.51;55.47;97527.22;8305808;28;20211;-65
2021/08/04 19:07:52;;;;;;;4.07;2.80;;;;;;;21.44;55.64;97529.63;8317717;28;20314;-65
2021/08/04 19:12:17;;;;;;;4.47;2.70;;;;;;;21.40;55.80;97532.66;8318579;28;20211;-66
2021/08/04 19:16:37;;;;;;;4.03;2.57;;;;;;;21.28;57.20;97538.16;8320003;28;20232;-66
2021/08/04 19:20:41;;;;;;;2.77;2.40;;;;;;;21.23;57.66;97544.81;8331335;28;20410;-65
2021/08/04 19:24:44;;;;;;;4.07;2.63;;;;;;;21.18;57.68;97552.31;8330773;28;20382;-66
2021/08/04 19:28:47;;;;;;;4.17;2.70;;;;;;;21.09;58.23;97546.09;8326538;28;20532;-65
2021/08/04 19:32:53;;;;;;;3.63;2.70;;;;;;;21.09;58.19;97538.22;8319582;28;20367;-66
2021/08/04 19:36:56;;;;;;;7.77;2.60;;;;;;;21.12;58.34;97534.47;8308499;28;20492;-66
2021/08/04 19:40:59;;;;;;;4.63;2.83;;;;;;;21.01;58.23;97527.59;8300683;28;20220;-66
2021/08/04 19:45:02;;;;;;;5.87;3.33;;;;;;;20.90;58.10;97531.22;8300613;28;20215;-66
2021/08/04 19:49:07;;;;;;;7.37;3.03;;;;;;;20.87;58.84;97532.34;8299940;28;20195;-66
2021/08/04 19:53:10;;;;;;;3.73;2.53;;;;;;;20.82;59.29;97526.66;8328364;28;20277;-66
2021/08/04 19:57:13;;;;;;;7.03;2.90;;;;;;;20.78;59.13;97525.31;8300104;28;20225;-65